Pagina principale
METAR-TAF:

METAR-TAF

Aeroporti :

Aeroporto di Tolone-Hyères

Tolone, Francia

latitudine: 43-06N, longitudine: 006-09E, altezza: 3 m

Osservazione

Il bollettino è stato emesso 31 minuti fa, alle 19:30 UTC
Vento 2 kt da direzioni variabili
Temperature 13°C
Umidità 88%
Pressione 1028 hPa
Visibilità 10 km o più
Cielo coperto ad un'altezza di 3900 ft

METAR: LFTH 161930Z AUTO VRB02KT 9999 OVC039 13/11 Q1028 TEMPO OVC010

Ora: 21:01 (20:01 UTC)

Previsione

Il bollettino è stato emesso 6 ore e 1 minuti fa, alle 14:00 UTC
Previsione valida dal 16 alle 15 UTC al 17 alle 15 UTC
Vento 7 kt da sud/sud-est
Visibilità 10 km o più
Nuvoloso ad un'altezza di 2000 ft
Temporaneamente
dal 16 alle 21 UTC al 17 alle 15 UTC
Cielo coperto ad un'altezza di 1000 ft
pioggia debole

TAF: LFTH 161400Z 1615/1715 16007KT 9999 BKN020 TEMPO 1621/1715 -RA OVC010

Osservazioni e previsioni meteorologiche di più di 4000 aeroporti (messaggi METAR e TAF).

Le stazioni disponibili sono rappresentate dai dischi gialli e rossi sulla carta.

Puntare il mouse per vedere il nome della stazione.

Clicca sopra per visualizzare le osservazioni e previsioni meteorologiche.

Per cambiare la mappa : fare clic sui pulsanti verdi con una croce nera per ingrandire, il pulsante verde con un trattino per diminuire, o sulla freccia verde per le mappe adiacenti.


METAR-TAF: